X  Sluiten METAR luchtvaart weer gegevens      EBBR Brussels Airport
Temperatuur
19°C Temperatuur
6°C Dauwpunt
43% Vochtigheid



Wind
13 KM/U
8 MPH
4 M/S
7 KTS



250°
WZW
Huidig weer

Helder Helder
Luchtdruk 1018.96 (hPa) - 30.09 (inHg)
Zicht 6 (mijl) - 9.7 (km)
Vliegveld
Vliegveld code EBBR

Locatie : Brussels Airport
Afstand: 14 (km)

Metar:
EBBR 071120Z 25007KT 210V290 CAVOK 19/06 Q1019 NOSIG

Tijd: 2024-06-07 13:20 CEST